createdAt,value
2022-10-14T00:00:52.475Z,20.00
2022-10-14T00:03:20.536Z,20.47
2022-10-14T00:05:48.516Z,19.17
2022-10-14T00:08:16.852Z,19.57
2022-10-14T00:10:46.219Z,19.53
2022-10-14T00:13:14.270Z,20.10
2022-10-14T00:15:42.963Z,20.00
2022-10-14T00:18:11.425Z,20.90
2022-10-14T00:20:39.450Z,20.50
2022-10-14T00:23:07.461Z,21.17
2022-10-14T00:25:39.999Z,18.13
2022-10-14T00:28:09.386Z,19.73
2022-10-14T00:30:37.827Z,21.90
2022-10-14T00:33:05.910Z,19.07
2022-10-14T00:35:34.208Z,20.73
2022-10-14T00:38:02.231Z,20.73
2022-10-14T00:40:30.675Z,19.17
2022-10-14T00:42:59.028Z,21.13
2022-10-14T00:45:28.579Z,19.80
2022-10-14T00:47:57.023Z,21.13
2022-10-14T00:50:25.275Z,19.20
2022-10-14T00:52:53.618Z,19.63
2022-10-14T00:55:21.781Z,21.00
2022-10-14T00:57:50.108Z,19.60
2022-10-14T01:00:20.931Z,20.90
2022-10-14T01:02:50.567Z,19.93
2022-10-14T01:05:21.197Z,20.50
2022-10-14T01:08:06.704Z,19.63
2022-10-14T01:10:43.009Z,19.10
2022-10-14T01:13:21.667Z,18.73
2022-10-14T01:15:56.574Z,19.80
2022-10-14T01:18:44.090Z,18.93
2022-10-14T01:21:24.684Z,18.87
2022-10-14T01:24:31.714Z,18.50
2022-10-14T01:27:43.848Z,19.47
2022-10-14T01:30:19.579Z,16.80
2022-10-14T01:32:58.930Z,17.80
2022-10-14T01:35:34.141Z,18.87
2022-10-14T01:38:08.027Z,20.37
2022-10-14T01:40:42.063Z,19.50
2022-10-14T01:43:13.279Z,19.60
2022-10-14T01:45:45.324Z,19.93
2022-10-14T01:48:17.140Z,19.10
2022-10-14T01:50:48.237Z,20.17
2022-10-14T01:53:20.051Z,19.77
2022-10-14T01:55:49.112Z,18.00
2022-10-14T01:58:21.017Z,19.30
2022-10-14T02:00:50.531Z,17.50
2022-10-14T02:03:18.908Z,19.60
2022-10-14T02:05:52.309Z,20.60
2022-10-14T02:08:30.138Z,20.03
2022-10-14T02:11:08.145Z,18.80
2022-10-14T02:13:50.095Z,18.43
2022-10-14T02:16:27.861Z,19.33
2022-10-14T02:19:03.855Z,19.90
2022-10-14T02:21:37.267Z,19.40
2022-10-14T02:24:10.429Z,19.80
2022-10-14T02:26:41.263Z,18.47
2022-10-14T02:29:09.700Z,19.87
2022-10-14T02:31:42.009Z,17.77
2022-10-14T02:34:13.294Z,19.57
2022-10-14T02:36:43.410Z,18.17
2022-10-14T02:39:14.757Z,18.50
2022-10-14T02:41:43.013Z,18.77
2022-10-14T02:44:11.093Z,19.43
2022-10-14T02:46:42.186Z,19.47
2022-10-14T02:49:10.345Z,19.63
2022-10-14T02:51:38.660Z,19.07
2022-10-14T02:54:07.060Z,17.33
2022-10-14T02:56:35.472Z,17.47
2022-10-14T02:59:03.880Z,19.23
2022-10-14T03:01:36.550Z,17.23
2022-10-14T03:04:07.069Z,19.07
2022-10-14T03:06:35.425Z,19.80
2022-10-14T03:09:04.156Z,18.77
2022-10-14T03:11:32.167Z,19.27
2022-10-14T03:14:00.667Z,17.70
2022-10-14T03:16:29.029Z,17.77
2022-10-14T03:18:57.059Z,17.98
2022-10-14T03:21:26.482Z,20.10
2022-10-14T03:23:54.528Z,17.63
2022-10-14T03:26:23.906Z,16.23
2022-10-14T03:28:52.310Z,18.67
2022-10-14T03:31:20.585Z,18.30
2022-10-14T03:33:48.949Z,17.73
2022-10-14T03:36:17.238Z,20.00
2022-10-14T03:38:47.439Z,18.40
2022-10-14T03:41:15.717Z,18.30
2022-10-14T03:43:43.840Z,17.93
2022-10-14T03:46:12.155Z,18.63
2022-10-14T03:48:40.225Z,18.33
2022-10-14T03:51:08.548Z,17.30
2022-10-14T03:53:36.625Z,17.87
2022-10-14T03:56:06.724Z,17.03
2022-10-14T03:58:35.053Z,17.30
2022-10-14T04:01:03.538Z,18.90
2022-10-14T04:03:31.867Z,18.07
2022-10-14T04:06:00.147Z,18.47
2022-10-14T04:08:28.452Z,17.93
2022-10-14T04:10:57.713Z,18.43
2022-10-14T04:13:27.177Z,17.53
2022-10-14T04:15:55.211Z,17.73
2022-10-14T04:18:23.622Z,19.37
2022-10-14T04:20:51.616Z,18.20
2022-10-14T04:23:19.889Z,18.10
2022-10-14T04:25:47.947Z,20.20
2022-10-14T04:28:16.288Z,19.53
2022-10-14T04:30:45.789Z,18.40
2022-10-14T04:33:14.070Z,17.43
2022-10-14T04:35:42.175Z,19.03
2022-10-14T04:38:10.161Z,19.60
2022-10-14T04:40:38.523Z,18.40
2022-10-14T04:43:06.541Z,19.37
2022-10-14T04:45:35.050Z,20.10
2022-10-14T04:48:04.496Z,17.90
2022-10-14T04:50:32.826Z,17.73
2022-10-14T04:53:00.887Z,18.50
2022-10-14T04:55:28.967Z,17.33
2022-10-14T04:57:57.282Z,19.67
2022-10-14T05:00:25.465Z,17.47
2022-10-14T05:02:54.059Z,16.27
2022-10-14T05:05:23.411Z,18.13
2022-10-14T05:07:51.744Z,18.23
2022-10-14T05:10:19.878Z,16.47
2022-10-14T05:12:48.192Z,17.80
2022-10-14T05:15:16.837Z,16.63
2022-10-14T05:17:45.580Z,18.00
2022-10-14T05:20:13.877Z,18.77
2022-10-14T05:22:45.466Z,17.97
2022-10-14T05:25:13.825Z,17.43
2022-10-14T05:27:42.040Z,18.70
2022-10-14T05:30:11.474Z,17.37
2022-10-14T05:32:39.521Z,18.53
2022-10-14T05:35:08.239Z,17.73
2022-10-14T05:37:36.591Z,20.57
2022-10-14T05:40:06.994Z,19.53
2022-10-14T05:42:35.347Z,18.47
2022-10-14T05:45:03.646Z,19.70
2022-10-14T05:47:31.623Z,19.57
2022-10-14T05:50:03.089Z,17.57
2022-10-14T05:52:34.349Z,19.40
2022-10-14T05:55:02.636Z,19.30
2022-10-14T05:57:33.539Z,19.70
2022-10-14T06:00:01.709Z,17.23
2022-10-14T06:02:29.740Z,18.57
2022-10-14T06:04:58.442Z,18.47
2022-10-14T06:07:26.523Z,19.33
2022-10-14T06:09:54.509Z,18.00
2022-10-14T06:12:23.061Z,18.60
2022-10-14T06:14:52.725Z,17.73
2022-10-14T06:17:21.036Z,18.17
2022-10-14T06:19:49.310Z,16.57
2022-10-14T06:22:17.605Z,19.37
2022-10-14T06:24:45.891Z,17.90
2022-10-14T06:27:14.222Z,18.67
2022-10-14T06:29:42.589Z,18.40
2022-10-14T06:32:12.068Z,19.10
2022-10-14T06:34:40.295Z,18.17
2022-10-14T06:37:08.642Z,17.53
2022-10-14T06:39:37.821Z,17.60
2022-10-14T06:42:10.709Z,17.60
2022-10-14T06:44:41.141Z,16.90
2022-10-14T06:47:09.391Z,18.57
2022-10-14T06:49:38.777Z,18.00
2022-10-14T06:52:07.090Z,16.87
2022-10-14T06:54:39.082Z,17.43
2022-10-14T06:57:07.715Z,17.40
2022-10-14T06:59:35.981Z,17.20
2022-10-14T07:02:04.317Z,18.43
2022-10-14T07:04:32.420Z,18.63
2022-10-14T07:07:03.002Z,20.93
2022-10-14T07:09:30.986Z,23.50
2022-10-14T07:11:59.032Z,17.27
2022-10-14T07:14:27.053Z,17.47
2022-10-14T07:16:55.079Z,17.73
2022-10-14T07:19:23.505Z,18.30
2022-10-14T07:21:51.784Z,16.17
2022-10-14T07:24:21.187Z,16.00
2022-10-14T07:26:49.286Z,17.03
2022-10-14T07:29:17.666Z,17.30
2022-10-14T07:31:45.946Z,17.33
2022-10-14T07:34:14.280Z,16.63
2022-10-14T07:36:42.405Z,17.03
2022-10-14T07:39:10.738Z,16.87
2022-10-14T07:41:40.878Z,16.00
2022-10-14T07:44:10.171Z,15.70
2022-10-14T07:46:41.345Z,15.67
2022-10-14T07:49:12.247Z,15.20
2022-10-14T07:51:41.004Z,15.60
2022-10-14T07:54:12.463Z,13.97
2022-10-14T07:56:44.147Z,14.50
2022-10-14T07:59:13.231Z,15.75
2022-10-14T08:01:43.936Z,15.37
2022-10-14T08:04:12.185Z,13.33
2022-10-14T08:06:40.218Z,13.37
2022-10-14T08:09:10.083Z,14.73
2022-10-14T08:11:38.840Z,14.63
2022-10-14T08:14:09.148Z,13.60
2022-10-14T08:16:37.807Z,11.90
2022-10-14T08:19:13.531Z,12.37
2022-10-14T08:21:43.239Z,13.45
2022-10-14T08:24:12.213Z,14.27
2022-10-14T08:26:41.988Z,12.77
2022-10-14T08:29:12.995Z,12.15
2022-10-14T08:31:41.062Z,12.70
2022-10-14T08:34:10.325Z,13.10
2022-10-14T08:36:38.638Z,13.85
2022-10-14T08:39:07.075Z,11.30
2022-10-14T08:41:54.345Z,10.52
2022-10-14T08:44:26.484Z,9.63
2022-10-14T08:46:57.709Z,12.18
2022-10-14T08:49:30.592Z,11.20
2022-10-14T08:52:03.964Z,10.98
2022-10-14T08:54:37.812Z,11.02
2022-10-14T08:57:07.173Z,11.80
2022-10-14T08:59:41.662Z,10.15
2022-10-14T09:02:21.364Z,11.77
2022-10-14T09:04:49.870Z,10.95
2022-10-14T09:07:20.299Z,9.93
2022-10-14T09:09:52.468Z,11.10
2022-10-14T09:12:25.512Z,11.02
2022-10-14T09:15:04.486Z,11.30
2022-10-14T09:17:38.078Z,9.85
2022-10-14T09:20:17.417Z,11.77
2022-10-14T09:22:46.427Z,12.20
2022-10-14T09:25:17.170Z,12.80
2022-10-14T09:27:48.156Z,12.07
2022-10-14T09:30:18.927Z,12.82
2022-10-14T09:32:49.632Z,13.45
2022-10-14T09:35:24.999Z,13.45
2022-10-14T09:37:53.755Z,12.45
2022-10-14T09:40:27.669Z,11.45
2022-10-14T09:43:00.263Z,11.98
2022-10-14T09:45:32.112Z,11.35
2022-10-14T09:48:07.657Z,12.32
2022-10-14T09:50:41.174Z,10.95
2022-10-14T09:53:17.048Z,11.15
2022-10-14T09:55:50.424Z,9.95
2022-10-14T09:58:22.169Z,12.00
2022-10-14T10:00:57.760Z,9.45
2022-10-14T10:03:27.880Z,11.00
2022-10-14T10:06:07.677Z,11.63
2022-10-14T10:08:36.981Z,11.55
2022-10-14T10:11:08.253Z,11.52
2022-10-14T10:13:44.894Z,11.85
2022-10-14T10:16:23.920Z,10.57
2022-10-14T10:18:54.111Z,13.32
2022-10-14T10:21:26.007Z,11.15
2022-10-14T10:23:59.729Z,12.85
2022-10-14T10:26:31.919Z,12.02
2022-10-14T10:29:02.596Z,10.75
2022-10-14T10:31:48.555Z,12.25
2022-10-14T10:34:41.288Z,13.30
2022-10-14T10:37:23.406Z,12.45
2022-10-14T10:40:11.373Z,14.82
2022-10-14T10:42:51.494Z,13.73
2022-10-14T10:45:36.373Z,12.27
2022-10-14T10:48:13.926Z,12.05
2022-10-14T10:50:48.694Z,12.57
2022-10-14T10:53:39.875Z,12.60
2022-10-14T10:56:18.447Z,12.23
2022-10-14T10:58:57.079Z,11.40
2022-10-14T11:01:39.235Z,12.07
2022-10-14T11:04:22.367Z,11.40
2022-10-14T11:07:28.295Z,11.88
2022-10-14T11:10:21.753Z,11.13
2022-10-14T11:12:59.510Z,10.93
2022-10-14T11:15:37.113Z,10.88
2022-10-14T11:18:12.910Z,12.45
2022-10-14T11:20:51.413Z,13.15
2022-10-14T11:23:50.139Z,11.65
2022-10-14T11:26:47.683Z,10.77
2022-10-14T11:29:43.000Z,12.52
2022-10-14T11:32:18.087Z,10.20
2022-10-14T11:34:57.073Z,12.68
2022-10-14T11:37:33.448Z,12.25
2022-10-14T11:40:06.301Z,11.20
2022-10-14T11:42:51.916Z,10.55
2022-10-14T11:45:55.573Z,11.70
2022-10-14T11:48:29.626Z,12.15
2022-10-14T11:51:05.558Z,10.07
2022-10-14T11:53:58.294Z,10.88
2022-10-14T11:56:44.207Z,11.15
2022-10-14T11:59:29.104Z,11.43
2022-10-14T12:02:02.051Z,11.60
2022-10-14T12:04:36.502Z,11.52
2022-10-14T12:07:10.035Z,12.13
2022-10-14T12:09:43.984Z,11.13
2022-10-14T12:12:15.617Z,11.38
2022-10-14T12:14:46.182Z,12.63
2022-10-14T12:17:20.483Z,10.98
2022-10-14T12:19:49.747Z,12.25
2022-10-14T12:22:21.868Z,12.02
2022-10-14T12:24:54.022Z,11.95
2022-10-14T12:27:24.389Z,11.80
2022-10-14T12:29:55.133Z,11.00
2022-10-14T12:32:25.824Z,12.75
2022-10-14T12:34:55.457Z,11.70
2022-10-14T12:40:31.462Z,10.98
2022-10-14T12:43:16.069Z,12.88
2022-10-14T12:46:12.656Z,12.23
2022-10-14T12:48:50.320Z,12.18
2022-10-14T12:51:21.221Z,16.20
2022-10-14T12:54:02.247Z,13.02
2022-10-14T12:56:34.800Z,12.43
2022-10-14T12:59:05.264Z,12.98
2022-10-14T13:01:36.252Z,12.85
2022-10-14T13:04:08.304Z,13.13
2022-10-14T13:06:42.303Z,13.63
2022-10-14T13:09:41.968Z,12.43
2022-10-14T13:12:42.802Z,13.02
2022-10-14T13:15:50.164Z,12.27
2022-10-14T13:18:50.172Z,11.70
2022-10-14T13:21:31.618Z,12.77
2022-10-14T13:24:02.797Z,11.63
2022-10-14T13:26:39.389Z,12.65
2022-10-14T13:29:18.383Z,12.57
2022-10-14T13:31:54.378Z,11.63
2022-10-14T13:34:33.707Z,12.80
2022-10-14T13:37:13.789Z,11.02
2022-10-14T13:39:41.886Z,12.15
2022-10-14T13:42:15.040Z,12.50
2022-10-14T13:44:45.483Z,13.38
2022-10-14T13:47:15.024Z,13.15
2022-10-14T13:49:44.210Z,13.80
2022-10-14T13:52:19.881Z,13.43
2022-10-14T13:54:48.529Z,13.82
2022-10-14T14:00:43.128Z,12.40
2022-10-14T14:03:19.997Z,11.43
2022-10-14T14:05:48.594Z,11.90
2022-10-14T14:08:39.957Z,13.43
2022-10-14T14:11:18.633Z,13.10
2022-10-14T14:14:01.390Z,11.60
2022-10-14T14:16:35.002Z,12.88
2022-10-14T14:19:08.829Z,12.57
2022-10-14T14:21:37.527Z,12.15
2022-10-14T14:24:16.823Z,12.30
2022-10-14T14:26:45.598Z,11.07
2022-10-14T14:29:18.166Z,13.82
2022-10-14T14:34:39.637Z,12.32
2022-10-14T14:37:34.366Z,11.57
2022-10-14T14:40:00.986Z,12.15
2022-10-14T14:42:32.171Z,11.90
2022-10-14T14:45:04.154Z,11.88
2022-10-14T14:47:34.333Z,11.75
2022-10-14T14:50:28.971Z,13.88
2022-10-14T14:52:53.566Z,12.43
2022-10-14T14:55:46.271Z,11.77
2022-10-14T14:58:25.437Z,12.77
2022-10-14T15:00:54.923Z,12.75
2022-10-14T15:03:27.947Z,12.50
2022-10-14T15:05:59.244Z,14.05
2022-10-14T15:08:29.793Z,13.07
2022-10-14T15:11:00.395Z,13.02
2022-10-14T15:13:44.752Z,13.88
2022-10-14T15:16:13.246Z,13.07
2022-10-14T15:18:43.566Z,14.13
2022-10-14T15:21:18.948Z,13.68
2022-10-14T15:24:03.048Z,14.07
2022-10-14T15:26:34.486Z,14.38
2022-10-14T15:32:07.575Z,15.38
2022-10-14T15:34:36.931Z,15.27
2022-10-14T15:37:05.250Z,14.75
2022-10-14T15:39:33.506Z,13.82
2022-10-14T15:42:02.340Z,15.20
2022-10-14T15:44:30.651Z,13.75
2022-10-14T15:47:16.313Z,13.07
2022-10-14T15:49:46.135Z,12.10
2022-10-14T15:52:16.593Z,13.90
2022-10-14T15:54:45.835Z,13.10
2022-10-14T15:57:16.584Z,12.85
2022-10-14T15:59:45.167Z,12.65
2022-10-14T16:02:18.059Z,13.32
2022-10-14T16:05:07.216Z,13.77
2022-10-14T16:07:36.213Z,11.65
2022-10-14T16:10:04.531Z,13.02
2022-10-14T16:12:32.915Z,12.82
2022-10-14T16:15:02.016Z,12.07
2022-10-14T16:17:30.146Z,11.55
2022-10-14T16:19:59.650Z,11.95
2022-10-14T16:22:28.027Z,12.70
2022-10-14T16:24:56.152Z,12.65
2022-10-14T16:27:24.716Z,11.95
2022-10-14T16:29:53.289Z,13.50
2022-10-14T16:32:21.990Z,12.70
2022-10-14T16:34:50.308Z,11.07
2022-10-14T16:37:19.870Z,13.57
2022-10-14T16:39:48.050Z,12.57
2022-10-14T16:42:18.473Z,12.48
2022-10-14T16:44:47.107Z,13.23
2022-10-14T16:47:19.182Z,11.73
2022-10-14T16:49:49.385Z,12.63
2022-10-14T16:52:19.595Z,12.82
2022-10-14T16:54:47.900Z,12.85
2022-10-14T16:57:16.448Z,12.20
2022-10-14T16:59:45.588Z,11.15
2022-10-14T17:02:16.151Z,11.23
2022-10-14T17:04:46.423Z,12.18
2022-10-14T17:07:17.406Z,11.43
2022-10-14T17:09:46.765Z,12.68
2022-10-14T17:12:15.139Z,13.00
2022-10-14T17:14:44.008Z,12.48
2022-10-14T17:17:12.589Z,11.52
2022-10-14T17:19:40.619Z,13.15
2022-10-14T17:22:08.978Z,12.98
2022-10-14T17:24:37.311Z,14.35
2022-10-14T17:27:06.912Z,13.32
2022-10-14T17:29:34.919Z,14.73
2022-10-14T17:32:03.332Z,13.20
2022-10-14T17:34:31.921Z,12.65
2022-10-14T17:37:00.645Z,11.65
2022-10-14T17:39:29.907Z,12.02
2022-10-14T17:41:58.650Z,12.57
2022-10-14T17:44:28.966Z,12.18
2022-10-14T17:46:59.267Z,11.88
2022-10-14T17:49:27.736Z,11.90
2022-10-14T17:51:55.719Z,11.38
2022-10-14T17:54:24.266Z,11.75
2022-10-14T17:56:52.552Z,12.25
2022-10-14T17:59:20.728Z,11.38
2022-10-14T18:02:05.535Z,12.38
2022-10-14T18:04:33.775Z,12.38
2022-10-14T18:07:01.848Z,11.82
2022-10-14T18:09:29.948Z,12.80
2022-10-14T18:12:13.433Z,12.13
2022-10-14T18:14:42.043Z,13.43
2022-10-14T18:17:13.008Z,13.10
2022-10-14T18:19:41.866Z,12.60
2022-10-14T18:22:11.112Z,12.65
2022-10-14T18:24:39.384Z,12.73
2022-10-14T18:27:07.963Z,12.57
2022-10-14T18:29:36.022Z,13.50
2022-10-14T18:32:04.147Z,12.98
2022-10-14T18:34:33.590Z,13.13
2022-10-14T18:37:01.692Z,12.93
2022-10-14T18:39:30.007Z,12.57
2022-10-14T18:41:58.095Z,12.32
2022-10-14T18:44:26.120Z,13.05
2022-10-14T18:46:54.512Z,14.13
2022-10-14T18:49:22.553Z,13.07
2022-10-14T18:51:53.172Z,13.10
2022-10-14T18:54:23.707Z,12.70
2022-10-14T18:56:52.612Z,13.27
2022-10-14T18:59:23.041Z,13.15
2022-10-14T19:01:52.826Z,13.67
2022-10-14T19:04:22.731Z,13.68
2022-10-14T19:06:52.576Z,11.73
2022-10-14T19:09:24.587Z,14.20
2022-10-14T19:11:53.291Z,12.33
2022-10-14T19:14:22.489Z,14.05
2022-10-14T19:16:50.836Z,13.47
2022-10-14T19:19:20.523Z,15.35
2022-10-14T19:21:54.152Z,13.83
2022-10-14T19:24:22.625Z,14.53
2022-10-14T19:26:50.982Z,13.90
2022-10-14T19:29:18.980Z,13.93
2022-10-14T19:31:47.482Z,13.80
2022-10-14T19:34:16.936Z,13.05
2022-10-14T19:36:45.813Z,13.50
2022-10-14T19:39:18.853Z,14.30
2022-10-14T19:41:47.436Z,14.27
2022-10-14T19:44:17.225Z,14.03
2022-10-14T19:46:45.883Z,14.07
2022-10-14T19:49:15.272Z,14.23
2022-10-14T19:51:43.614Z,13.90
2022-10-14T19:54:12.835Z,13.75
2022-10-14T19:56:42.909Z,14.63
2022-10-14T19:59:13.376Z,13.52
2022-10-14T20:01:41.908Z,13.70
2022-10-14T20:04:10.127Z,13.75
2022-10-14T20:06:39.949Z,13.50
2022-10-14T20:09:08.829Z,13.57
2022-10-14T20:11:37.168Z,13.67
2022-10-14T20:14:06.566Z,14.43
2022-10-14T20:16:35.247Z,14.17
2022-10-14T20:19:03.896Z,13.97
2022-10-14T20:21:32.194Z,13.80
2022-10-14T20:24:00.594Z,13.97
2022-10-14T20:26:28.741Z,13.53
2022-10-14T20:28:56.932Z,12.83
2022-10-14T20:31:26.555Z,12.97
2022-10-14T20:33:56.927Z,14.43
2022-10-14T20:36:25.274Z,14.40
2022-10-14T20:38:53.702Z,14.43
2022-10-14T20:41:24.289Z,13.97
2022-10-14T20:43:53.727Z,14.13
2022-10-14T20:46:23.267Z,14.20
2022-10-14T20:48:56.192Z,14.20
2022-10-14T20:51:24.593Z,14.07
2022-10-14T20:54:00.464Z,15.27
2022-10-14T20:56:32.059Z,14.77
2022-10-14T20:59:01.640Z,15.33
2022-10-14T21:01:31.188Z,14.43
2022-10-14T21:04:02.221Z,14.67
2022-10-14T21:06:30.586Z,14.67
2022-10-14T21:08:59.647Z,15.07
2022-10-14T21:11:28.191Z,14.33
2022-10-14T21:13:57.931Z,15.53
2022-10-14T21:16:27.841Z,13.90
2022-10-14T21:18:58.524Z,14.90
2022-10-14T21:21:30.382Z,12.70
2022-10-14T21:23:58.707Z,15.53
2022-10-14T21:26:27.024Z,14.43
2022-10-14T21:28:55.400Z,14.90
2022-10-14T21:31:23.643Z,14.17
2022-10-14T21:33:55.728Z,15.07
2022-10-14T21:36:23.881Z,14.27
2022-10-14T21:38:53.506Z,14.17
2022-10-14T21:41:21.438Z,14.83
2022-10-14T21:43:49.451Z,14.57
2022-10-14T21:46:18.389Z,14.97
2022-10-14T21:48:46.918Z,15.73
2022-10-14T21:51:16.583Z,14.50
2022-10-14T21:53:45.964Z,15.43
2022-10-14T21:56:16.344Z,11.30
2022-10-14T21:58:44.806Z,12.73
2022-10-14T22:01:15.365Z,12.07
2022-10-14T22:03:43.812Z,11.97
2022-10-14T22:06:14.022Z,13.60
2022-10-14T22:08:43.537Z,12.20
2022-10-14T22:22:36.083Z,12.90
2022-10-14T22:25:04.399Z,13.73
2022-10-14T22:27:32.429Z,13.80
2022-10-14T22:30:00.453Z,13.23
2022-10-14T22:32:28.495Z,13.60
2022-10-14T22:34:56.850Z,13.17
2022-10-14T22:37:25.160Z,12.97
2022-10-14T22:39:54.824Z,13.37
2022-10-14T22:42:23.162Z,14.63
2022-10-14T22:44:51.474Z,14.10
2022-10-14T22:47:20.087Z,12.93
2022-10-14T22:49:48.707Z,12.53
2022-10-14T22:52:17.030Z,13.80
2022-10-14T22:54:45.098Z,13.93
2022-10-14T22:57:14.514Z,14.33
2022-10-14T22:59:42.623Z,14.00
2022-10-14T23:02:10.946Z,13.50
2022-10-14T23:04:39.345Z,13.53
2022-10-14T23:07:07.877Z,13.30
2022-10-14T23:12:09.356Z,12.23
2022-10-14T23:14:38.780Z,12.87
2022-10-14T23:17:07.112Z,13.23
2022-10-14T23:19:35.458Z,12.87
2022-10-14T23:22:03.742Z,12.57
2022-10-14T23:24:31.809Z,12.37
2022-10-14T23:27:00.137Z,12.20
2022-10-14T23:29:28.198Z,12.13
2022-10-14T23:31:58.106Z,12.37
2022-10-14T23:34:26.411Z,13.47
2022-10-14T23:39:27.925Z,13.03
2022-10-14T23:41:56.249Z,13.57
2022-10-14T23:44:24.571Z,13.50
2022-10-14T23:46:52.912Z,12.33
2022-10-14T23:49:25.858Z,13.00
2022-10-14T23:51:55.259Z,12.63
2022-10-14T23:54:23.329Z,12.60
2022-10-14T23:56:51.738Z,13.33
2022-10-14T23:59:20.053Z,13.93
